createdAt,value
2023-04-10T00:01:24.517Z,6.80
2023-04-10T00:03:55.076Z,5.78
2023-04-10T00:06:26.980Z,5.68
2023-04-10T00:09:04.321Z,5.53
2023-04-10T00:11:34.897Z,6.38
2023-04-10T00:14:23.495Z,5.25
2023-04-10T00:16:55.810Z,5.05
2023-04-10T00:21:54.888Z,4.72
2023-04-10T00:24:22.308Z,5.57
2023-04-10T00:26:49.746Z,4.82
2023-04-10T00:29:25.634Z,4.68
2023-04-10T00:31:53.001Z,5.18
2023-04-10T00:34:20.483Z,5.13
2023-04-10T00:37:05.302Z,5.80
2023-04-10T00:39:32.737Z,4.53
2023-04-10T00:42:09.651Z,5.22
2023-04-10T00:44:38.234Z,4.65
2023-04-10T00:47:32.415Z,5.68
2023-04-10T00:50:00.040Z,4.45
2023-04-10T00:52:29.236Z,5.32
2023-04-10T00:54:56.736Z,5.25
2023-04-10T00:57:29.615Z,5.25
2023-04-10T01:00:00.314Z,5.70
2023-04-10T01:02:27.720Z,4.53
2023-04-10T01:04:57.413Z,5.15
2023-04-10T01:07:27.627Z,4.68
2023-04-10T01:10:22.938Z,4.07
2023-04-10T01:12:59.288Z,3.55
2023-04-10T01:15:31.236Z,4.15
2023-04-10T01:18:27.970Z,4.18
2023-04-10T01:21:09.905Z,4.80
2023-04-10T01:23:49.550Z,5.13
2023-04-10T01:26:23.505Z,3.95
2023-04-10T01:29:07.392Z,4.60
2023-04-10T01:32:07.819Z,3.75
2023-04-10T01:34:53.262Z,4.60
2023-04-10T01:37:32.081Z,3.58
2023-04-10T01:40:11.100Z,5.22
2023-04-10T01:42:45.114Z,4.40
2023-04-10T01:45:20.206Z,5.57
2023-04-10T01:47:52.963Z,3.28
2023-04-10T01:50:24.546Z,3.47
2023-04-10T01:53:04.092Z,4.43
2023-04-10T01:55:37.272Z,3.75
2023-04-10T01:58:07.141Z,4.75
2023-04-10T02:00:40.356Z,3.75
2023-04-10T02:05:52.299Z,3.38
2023-04-10T02:08:31.402Z,4.38
2023-04-10T02:11:13.007Z,4.18
2023-04-10T02:13:42.521Z,4.53
2023-04-10T02:16:11.632Z,3.75
2023-04-10T02:18:42.487Z,4.45
2023-04-10T02:21:14.815Z,4.32
2023-04-10T02:26:12.183Z,3.45
2023-04-10T02:28:43.476Z,4.18
2023-04-10T02:31:10.974Z,4.05
2023-04-10T02:33:38.552Z,4.13
2023-04-10T02:36:06.263Z,4.07
2023-04-10T02:38:35.901Z,3.42
2023-04-10T02:41:04.018Z,3.35
2023-04-10T02:43:31.467Z,3.67
2023-04-10T02:46:04.315Z,5.22
2023-04-10T02:48:40.170Z,4.10
2023-04-10T02:51:07.877Z,3.88
2023-04-10T02:53:35.733Z,4.00
2023-04-10T02:56:11.912Z,3.33
2023-04-10T02:58:42.490Z,3.45
2023-04-10T03:01:14.523Z,3.28
2023-04-10T03:03:44.787Z,3.50
2023-04-10T03:06:25.585Z,3.63
2023-04-10T03:08:55.375Z,3.15
2023-04-10T03:11:29.050Z,4.15
2023-04-10T03:14:05.185Z,4.32
2023-04-10T03:16:32.717Z,3.28
2023-04-10T03:19:07.279Z,4.55
2023-04-10T03:21:40.088Z,4.50
2023-04-10T03:24:07.405Z,4.43
2023-04-10T03:26:38.016Z,4.63
2023-04-10T03:29:05.471Z,4.20
2023-04-10T03:31:37.049Z,4.40
2023-04-10T03:34:07.451Z,4.35
2023-04-10T03:36:37.361Z,4.32
2023-04-10T03:39:04.692Z,5.78
2023-04-10T03:41:34.149Z,4.97
2023-04-10T03:44:04.663Z,5.72
2023-04-10T03:46:35.098Z,4.18
2023-04-10T03:49:02.390Z,6.47
2023-04-10T03:51:39.719Z,6.05
2023-04-10T03:54:07.238Z,5.38
2023-04-10T03:56:34.644Z,4.88
2023-04-10T03:59:02.272Z,6.10
2023-04-10T04:01:30.716Z,4.72
2023-04-10T04:04:03.591Z,5.00
2023-04-10T04:06:49.726Z,4.60
2023-04-10T04:09:56.598Z,4.68
2023-04-10T04:12:39.160Z,5.43
2023-04-10T04:15:26.743Z,4.78
2023-04-10T04:18:02.812Z,4.70
2023-04-10T04:20:42.323Z,5.50
2023-04-10T04:23:38.784Z,6.05
2023-04-10T04:26:45.082Z,5.32
2023-04-10T04:29:32.611Z,5.25
2023-04-10T04:32:14.170Z,5.45
2023-04-10T04:34:59.473Z,6.95
2023-04-10T04:37:47.134Z,5.13
2023-04-10T04:40:32.568Z,6.57
2023-04-10T04:43:18.155Z,5.35
2023-04-10T04:45:59.994Z,6.28
2023-04-10T04:49:02.323Z,4.35
2023-04-10T04:51:53.240Z,4.85
2023-04-10T04:54:36.274Z,4.88
2023-04-10T04:57:20.281Z,4.93
2023-04-10T05:00:07.117Z,4.10
2023-04-10T05:02:53.135Z,4.15
2023-04-10T05:05:37.247Z,4.57
2023-04-10T05:08:22.821Z,5.03
2023-04-10T05:11:15.529Z,3.65
2023-04-10T05:13:56.135Z,4.75
2023-04-10T05:16:52.664Z,3.70
2023-04-10T05:19:42.699Z,5.15
2023-04-10T05:22:21.371Z,5.88
2023-04-10T05:25:13.908Z,5.43
2023-04-10T05:28:01.518Z,4.57
2023-04-10T05:30:54.487Z,5.30
2023-04-10T05:33:58.463Z,5.28
2023-04-10T05:37:01.637Z,4.70
2023-04-10T05:39:58.176Z,4.20
2023-04-10T05:42:47.239Z,4.68
2023-04-10T05:45:28.770Z,4.53
2023-04-10T05:48:20.944Z,4.63
2023-04-10T05:51:15.734Z,4.40
2023-04-10T05:54:01.208Z,4.40
2023-04-10T05:56:42.189Z,4.72
2023-04-10T05:59:45.979Z,5.10
2023-04-10T06:02:41.326Z,3.33
2023-04-10T06:05:15.844Z,3.72
2023-04-10T06:07:43.852Z,3.90
2023-04-10T06:10:11.551Z,3.97
2023-04-10T06:12:39.238Z,4.05
2023-04-10T06:15:12.968Z,4.28
2023-04-10T06:17:44.508Z,4.50
2023-04-10T06:20:12.388Z,4.47
2023-04-10T06:22:39.619Z,3.83
2023-04-10T06:25:07.308Z,3.30
2023-04-10T06:27:37.939Z,4.35
2023-04-10T06:30:12.003Z,5.15
2023-04-10T06:32:41.991Z,4.07
2023-04-10T06:35:19.740Z,3.97
2023-04-10T06:37:47.885Z,4.22
2023-04-10T06:40:18.822Z,4.90
2023-04-10T06:42:46.039Z,4.80
2023-04-10T06:45:25.667Z,4.32
2023-04-10T06:47:53.147Z,3.85
2023-04-10T06:50:22.985Z,3.88
2023-04-10T06:53:00.079Z,4.00
2023-04-10T06:55:27.563Z,4.82
2023-04-10T06:57:56.260Z,4.25
2023-04-10T07:00:24.157Z,4.07
2023-04-10T07:02:51.404Z,4.07
2023-04-10T07:05:22.164Z,3.15
2023-04-10T07:07:50.787Z,4.03
2023-04-10T07:10:20.456Z,4.90
2023-04-10T07:12:47.765Z,4.25
2023-04-10T07:15:14.991Z,5.45
2023-04-10T07:17:42.527Z,5.50
2023-04-10T07:20:12.887Z,4.47
2023-04-10T07:22:40.550Z,4.25
2023-04-10T07:25:14.470Z,4.28
2023-04-10T07:27:41.825Z,3.85
2023-04-10T07:30:13.555Z,4.03
2023-04-10T07:32:43.487Z,5.03
2023-04-10T07:35:16.382Z,4.68
2023-04-10T07:37:46.804Z,4.43
2023-04-10T07:40:16.446Z,4.55
2023-04-10T07:42:46.786Z,5.95
2023-04-10T07:45:14.096Z,5.93
2023-04-10T07:47:41.223Z,5.25
2023-04-10T07:50:08.942Z,6.15
2023-04-10T07:52:36.961Z,4.22
2023-04-10T07:55:04.793Z,4.00
2023-04-10T07:57:32.471Z,4.28
2023-04-10T07:59:59.928Z,4.50
2023-04-10T08:02:27.128Z,3.88
2023-04-10T08:04:54.609Z,4.18
2023-04-10T08:07:22.728Z,3.78
2023-04-10T08:09:49.932Z,4.35
2023-04-10T08:12:17.709Z,4.13
2023-04-10T08:14:45.317Z,5.90
2023-04-10T08:17:15.031Z,4.57
2023-04-10T08:19:43.453Z,5.43
2023-04-10T08:22:10.866Z,5.10
2023-04-10T08:24:42.787Z,7.07
2023-04-10T08:27:09.885Z,5.85
2023-04-10T08:29:42.282Z,5.63
2023-04-10T08:32:11.016Z,6.47
2023-04-10T08:34:38.311Z,5.15
2023-04-10T08:37:11.917Z,6.40
2023-04-10T08:39:40.385Z,6.30
2023-04-10T08:42:07.902Z,5.40
2023-04-10T08:44:37.210Z,4.60
2023-04-10T08:47:06.290Z,5.32
2023-04-10T08:49:43.501Z,4.85
2023-04-10T08:52:21.390Z,5.05
2023-04-10T08:54:51.405Z,5.10
2023-04-10T08:57:22.628Z,5.45
2023-04-10T08:59:51.784Z,5.15
2023-04-10T09:02:20.168Z,4.20
2023-04-10T09:04:55.555Z,5.13
2023-04-10T09:07:23.904Z,5.95
2023-04-10T09:09:51.249Z,5.65
2023-04-10T09:12:18.541Z,4.15
2023-04-10T09:14:50.320Z,4.90
2023-04-10T09:17:21.785Z,4.32
2023-04-10T09:19:52.640Z,5.28
2023-04-10T09:22:33.617Z,5.50
2023-04-10T09:25:03.299Z,5.95
2023-04-10T09:27:38.676Z,4.40
2023-04-10T09:30:07.288Z,5.15
2023-04-10T09:32:43.478Z,5.00
2023-04-10T09:35:15.623Z,4.70
2023-04-10T09:37:52.412Z,5.85
2023-04-10T09:40:31.008Z,5.03
2023-04-10T09:43:03.688Z,4.65
2023-04-10T09:45:49.304Z,4.78
2023-04-10T09:48:16.822Z,5.15
2023-04-10T09:50:44.243Z,4.70
2023-04-10T09:53:16.659Z,5.03
2023-04-10T09:55:44.251Z,6.80
2023-04-10T09:58:14.393Z,3.88
2023-04-10T10:00:44.665Z,4.63
2023-04-10T10:03:19.215Z,4.78
2023-04-10T10:05:53.204Z,4.10
2023-04-10T10:08:42.390Z,4.30
2023-04-10T10:11:14.383Z,5.55
2023-04-10T10:13:54.946Z,4.30
2023-04-10T10:16:34.599Z,3.95
2023-04-10T10:19:31.424Z,3.88
2023-04-10T10:22:01.824Z,3.35
2023-04-10T10:24:32.438Z,3.97
2023-04-10T10:27:05.580Z,3.40
2023-04-10T10:29:34.983Z,4.18
2023-04-10T10:32:08.922Z,4.05
2023-04-10T10:34:44.024Z,3.85
2023-04-10T10:37:12.750Z,5.95
2023-04-10T10:40:10.806Z,3.60
2023-04-10T10:43:05.311Z,3.55
2023-04-10T10:45:44.173Z,3.28
2023-04-10T10:48:23.174Z,5.03
2023-04-10T10:50:57.377Z,3.35
2023-04-10T10:54:22.967Z,4.20
2023-04-10T10:56:56.203Z,3.75
2023-04-10T11:04:01.847Z,3.50
2023-04-10T11:06:54.917Z,3.13
2023-04-10T11:10:01.830Z,4.22
2023-04-10T11:13:07.555Z,3.92
2023-04-10T11:15:56.328Z,3.10
2023-04-10T11:18:59.381Z,3.50
2023-04-10T11:22:17.781Z,4.57
2023-04-10T11:24:59.707Z,4.72
2023-04-10T11:28:02.187Z,3.75
2023-04-10T11:30:38.814Z,4.55
2023-04-10T11:33:08.838Z,4.63
2023-04-10T11:35:36.356Z,3.35
2023-04-10T11:38:22.788Z,3.08
2023-04-10T11:41:49.079Z,3.08
2023-04-10T11:57:16.446Z,4.15
2023-04-10T12:11:52.168Z,4.28
2023-04-10T12:15:36.435Z,3.70
2023-04-10T12:18:54.608Z,4.40
2023-04-10T12:21:22.250Z,4.32
2023-04-10T12:24:12.060Z,3.92
2023-04-10T12:27:01.596Z,3.30
2023-04-10T12:29:49.729Z,3.67
2023-04-10T12:33:18.226Z,2.90
2023-04-10T12:37:18.273Z,3.95
2023-04-10T12:40:09.752Z,4.10
2023-04-10T12:43:05.992Z,2.70
2023-04-10T12:45:56.928Z,3.15
2023-04-10T12:48:28.501Z,2.70
2023-04-10T12:51:16.083Z,2.95
2023-04-10T12:53:46.891Z,3.53
2023-04-10T12:56:14.835Z,3.00
2023-04-10T12:58:44.207Z,3.40
2023-04-10T13:01:11.286Z,2.70
2023-04-10T13:03:38.646Z,3.10
2023-04-10T13:06:07.495Z,3.28
2023-04-10T13:08:37.768Z,2.22
2023-04-10T13:11:05.183Z,2.35
2023-04-10T13:13:41.181Z,2.22
2023-04-10T13:16:15.643Z,2.80
2023-04-10T13:18:45.812Z,2.70
2023-04-10T13:21:23.320Z,1.65
2023-04-10T13:24:02.091Z,2.67
2023-04-10T13:26:35.644Z,3.30
2023-04-10T13:29:05.396Z,2.75
2023-04-10T13:31:47.585Z,4.00
2023-04-10T13:36:47.357Z,1.92
2023-04-10T13:39:29.437Z,2.10
2023-04-10T13:42:06.816Z,2.50
2023-04-10T13:45:05.136Z,2.35
2023-04-10T13:47:40.622Z,3.33
2023-04-10T13:50:15.377Z,2.45
2023-04-10T13:52:47.807Z,2.33
2023-04-10T13:55:18.110Z,2.35
2023-04-10T13:57:47.973Z,2.17
2023-04-10T14:00:26.626Z,2.28
2023-04-10T14:02:57.335Z,1.95
2023-04-10T14:05:31.268Z,2.05
2023-04-10T14:08:15.983Z,2.40
2023-04-10T14:10:56.322Z,2.03
2023-04-10T14:13:26.351Z,2.25
2023-04-10T14:16:34.598Z,1.75
2023-04-10T14:19:09.460Z,2.10
2023-04-10T14:21:37.364Z,2.10
2023-04-10T14:37:37.439Z,2.53
2023-04-10T14:59:16.847Z,2.28
2023-04-10T15:02:07.638Z,2.47
2023-04-10T15:08:33.765Z,2.92
2023-04-10T15:20:48.839Z,3.30
2023-04-10T15:25:06.473Z,2.83
2023-04-10T15:28:08.477Z,3.92
2023-04-10T15:34:37.765Z,2.83
2023-04-10T15:37:30.685Z,2.67
2023-04-10T15:40:06.711Z,2.97
2023-04-10T15:43:25.526Z,2.08
2023-04-10T15:46:04.903Z,2.53
2023-04-10T15:56:11.680Z,3.08
2023-04-10T15:59:35.451Z,2.50
2023-04-10T16:03:06.458Z,1.80
2023-04-10T16:06:25.325Z,1.75
2023-04-10T16:09:27.351Z,3.88
2023-04-10T16:15:58.011Z,2.00
2023-04-10T16:19:26.956Z,3.13
2023-04-10T16:23:15.996Z,2.78
2023-04-10T16:25:46.184Z,2.05
2023-04-10T16:28:16.512Z,1.73
2023-04-10T16:30:47.000Z,2.75
2023-04-10T16:33:14.125Z,1.55
2023-04-10T16:35:43.920Z,1.73
2023-04-10T16:38:14.202Z,1.65
2023-04-10T16:40:41.482Z,1.50
2023-04-10T16:44:38.335Z,1.92
2023-04-10T16:47:05.680Z,2.38
2023-04-10T16:49:38.221Z,2.75
2023-04-10T16:52:05.745Z,4.22
2023-04-10T16:54:36.084Z,3.17
2023-04-10T16:57:06.744Z,2.85
2023-04-10T16:59:37.213Z,3.75
2023-04-10T17:02:06.987Z,3.38
2023-04-10T17:04:34.234Z,2.75
2023-04-10T17:07:04.106Z,3.03
2023-04-10T17:09:36.103Z,4.22
2023-04-10T17:12:03.515Z,2.70
2023-04-10T17:14:33.091Z,2.83
2023-04-10T17:17:36.902Z,3.90
2023-04-10T17:20:04.394Z,4.55
2023-04-10T17:22:34.066Z,7.40
2023-04-10T17:25:01.234Z,5.20
2023-04-10T17:27:28.560Z,5.55
2023-04-10T17:29:58.933Z,4.97
2023-04-10T17:32:26.326Z,5.03
2023-04-10T17:34:53.379Z,4.70
2023-04-10T17:37:20.476Z,7.32
2023-04-10T17:39:47.479Z,6.45
2023-04-10T17:42:14.557Z,5.55
2023-04-10T17:44:41.643Z,4.80
2023-04-10T17:47:32.532Z,6.78
2023-04-10T17:50:02.994Z,5.93
2023-04-10T17:52:30.646Z,5.10
2023-04-10T17:54:59.234Z,6.63
2023-04-10T17:57:26.500Z,4.85
2023-04-10T17:59:53.753Z,5.97
2023-04-10T18:02:20.976Z,4.35
2023-04-10T18:04:48.071Z,4.65
2023-04-10T18:07:15.052Z,4.50
2023-04-10T18:09:42.611Z,2.85
2023-04-10T18:12:12.855Z,3.53
2023-04-10T18:14:40.123Z,3.00
2023-04-10T18:17:07.235Z,2.42
2023-04-10T18:19:34.311Z,2.78
2023-04-10T18:22:01.394Z,2.67
2023-04-10T18:24:31.346Z,3.97
2023-04-10T18:27:01.123Z,2.92
2023-04-10T18:29:31.451Z,2.53
2023-04-10T18:32:00.704Z,2.95
2023-04-10T18:34:27.812Z,2.42
2023-04-10T18:36:55.791Z,2.17
2023-04-10T18:39:22.775Z,2.92
2023-04-10T18:41:49.842Z,1.70
2023-04-10T18:44:17.437Z,1.60
2023-04-10T18:46:48.607Z,1.83
2023-04-10T18:49:21.310Z,1.85
2023-04-10T18:51:53.990Z,2.50
2023-04-10T18:54:21.170Z,2.28
2023-04-10T18:56:48.345Z,1.50
2023-04-10T18:59:15.885Z,1.48
2023-04-10T19:01:42.944Z,2.45
2023-04-10T19:04:17.899Z,2.00
2023-04-10T19:06:46.351Z,1.70
2023-04-10T19:09:14.108Z,1.92
2023-04-10T19:11:41.660Z,1.73
2023-04-10T19:14:11.747Z,4.47
2023-04-10T19:16:38.844Z,2.08
2023-04-10T19:19:06.229Z,3.13
2023-04-10T19:21:34.554Z,2.78
2023-04-10T19:24:01.568Z,4.30
2023-04-10T19:26:31.918Z,2.90
2023-04-10T19:29:02.328Z,2.80
2023-04-10T19:31:29.906Z,2.38
2023-04-10T19:34:02.679Z,3.85
2023-04-10T19:36:29.930Z,3.38
2023-04-10T19:38:57.679Z,2.63
2023-04-10T19:41:28.206Z,3.35
2023-04-10T19:43:59.114Z,2.50
2023-04-10T19:46:27.998Z,2.78
2023-04-10T19:52:56.536Z,3.45
2023-04-10T19:55:26.887Z,3.45
2023-04-10T19:57:54.953Z,4.70
2023-04-10T20:00:24.882Z,3.17
2023-04-10T20:03:50.456Z,3.53
2023-04-10T20:06:22.189Z,2.97
2023-04-10T20:08:59.839Z,2.03
2023-04-10T20:12:00.512Z,2.55
2023-04-10T20:15:01.633Z,2.60
2023-04-10T20:17:34.349Z,1.83
2023-04-10T20:20:03.676Z,2.80
2023-04-10T20:22:43.294Z,2.10
2023-04-10T20:25:22.293Z,2.42
2023-04-10T20:27:52.123Z,1.70
2023-04-10T20:30:20.440Z,2.25
2023-04-10T20:32:47.538Z,1.60
2023-04-10T20:35:14.769Z,2.90
2023-04-10T20:37:41.774Z,2.55
2023-04-10T20:40:14.379Z,2.28
2023-04-10T20:42:59.780Z,2.92
2023-04-10T20:45:30.152Z,2.42
2023-04-10T20:48:10.775Z,1.77
2023-04-10T20:50:47.152Z,2.03
2023-04-10T20:53:14.247Z,1.55
2023-04-10T20:55:41.412Z,1.80
2023-04-10T20:58:08.606Z,3.35
2023-04-10T21:00:43.339Z,2.30
2023-04-10T21:03:12.057Z,2.38
2023-04-10T21:05:41.595Z,3.17
2023-04-10T21:08:13.181Z,2.47
2023-04-10T21:10:44.454Z,2.78
2023-04-10T21:13:15.899Z,1.60
2023-04-10T21:15:43.377Z,3.05
2023-04-10T21:18:16.109Z,2.60
2023-04-10T21:20:43.511Z,3.88
2023-04-10T21:23:34.197Z,1.63
2023-04-10T21:27:22.431Z,3.30
2023-04-10T21:29:51.574Z,4.25
2023-04-10T21:35:56.078Z,1.55
2023-04-10T21:47:06.924Z,2.78
2023-04-10T21:49:41.883Z,4.47
2023-04-10T21:52:16.892Z,3.55
2023-04-10T21:55:28.701Z,4.15
2023-04-10T21:58:01.450Z,4.80
2023-04-10T22:00:31.799Z,4.93
2023-04-10T22:03:16.864Z,3.70
2023-04-10T22:05:46.114Z,3.10
2023-04-10T22:08:22.160Z,5.15
2023-04-10T22:10:52.610Z,5.25
2023-04-10T22:13:45.443Z,6.18
2023-04-10T22:16:19.038Z,6.05
2023-04-10T22:18:51.116Z,5.07
2023-04-10T22:24:45.933Z,4.35
2023-04-10T22:41:59.733Z,5.70
2023-04-10T22:45:53.828Z,7.00
2023-04-10T22:49:01.579Z,5.53
2023-04-10T22:51:28.957Z,8.18
2023-04-10T22:53:56.435Z,7.63
2023-04-10T22:56:40.402Z,7.90
2023-04-10T22:59:42.440Z,8.90
2023-04-10T23:02:40.916Z,10.38
2023-04-10T23:05:38.864Z,8.18
2023-04-10T23:08:25.868Z,10.50
2023-04-10T23:11:02.136Z,9.82
2023-04-10T23:13:44.423Z,14.40
2023-04-10T23:16:18.779Z,14.63
2023-04-10T23:18:50.592Z,11.75
2023-04-10T23:21:17.967Z,8.38
2023-04-10T23:23:50.793Z,7.60
2023-04-10T23:26:23.448Z,4.47
2023-04-10T23:28:50.703Z,4.32
2023-04-10T23:31:18.145Z,4.63
2023-04-10T23:33:48.329Z,2.85
2023-04-10T23:36:19.628Z,2.50
2023-04-10T23:38:49.406Z,2.55
2023-04-10T23:41:36.485Z,2.47
2023-04-10T23:44:11.486Z,2.63
2023-04-10T23:46:42.170Z,3.92
2023-04-10T23:49:16.238Z,1.70
2023-04-10T23:52:10.991Z,2.70
2023-04-10T23:54:42.347Z,2.50
2023-04-10T23:57:17.764Z,3.25
2023-04-10T23:59:50.070Z,1.33
